sensor_id;sensor_type;location;lat;lon;timestamp;pressure;altitude;pressure_sealevel;temperature;humidity
46303;BME280;32029;51.358;5.628;2023-02-03T00:01:11;102285.31;;;10.88;94.09
46303;BME280;32029;51.358;5.628;2023-02-03T00:03:53;102263.75;;;10.75;94.21
46303;BME280;32029;51.358;5.628;2023-02-03T00:06:37;102304.81;;;10.95;94.24
46303;BME280;32029;51.358;5.628;2023-02-03T00:09:23;102267.22;;;10.77;94.34
46303;BME280;32029;51.358;5.628;2023-02-03T00:12:11;102292.09;;;10.94;94.26
46303;BME280;32029;51.358;5.628;2023-02-03T00:14:51;102288.63;;;10.92;94.44
46303;BME280;32029;51.358;5.628;2023-02-03T00:17:38;102262.56;;;10.78;94.53
46303;BME280;32029;51.358;5.628;2023-02-03T00:20:23;102302.78;;;10.97;94.03
46303;BME280;32029;51.358;5.628;2023-02-03T00:23:14;102231.34;;;10.61;94.42
46303;BME280;32029;51.358;5.628;2023-02-03T00:26:12;102239.31;;;10.72;94.25
46303;BME280;32029;51.358;5.628;2023-02-03T00:29:07;102273.91;;;10.93;94.04
46303;BME280;32029;51.358;5.628;2023-02-03T00:31:52;102296.34;;;11.06;93.93
46303;BME280;32029;51.358;5.628;2023-02-03T00:34:38;102265.81;;;10.91;93.68
46303;BME280;32029;51.358;5.628;2023-02-03T00:37:23;102293.78;;;11.04;93.96
46303;BME280;32029;51.358;5.628;2023-02-03T00:40:10;102299.81;;;11.08;93.78
46303;BME280;32029;51.358;5.628;2023-02-03T00:42:58;102284.69;;;11.04;93.48
46303;BME280;32029;51.358;5.628;2023-02-03T00:45:42;102295.03;;;11.10;93.29
46303;BME280;32029;51.358;5.628;2023-02-03T00:48:28;102268.16;;;10.86;93.33
46303;BME280;32029;51.358;5.628;2023-02-03T00:51:10;102301.25;;;11.12;93.36
46303;BME280;32029;51.358;5.628;2023-02-03T00:53:58;102263.78;;;10.93;93.36
46303;BME280;32029;51.358;5.628;2023-02-03T00:56:43;102298.34;;;11.14;93.13
46303;BME280;32029;51.358;5.628;2023-02-03T00:59:28;102254.59;;;10.85;93.29
46303;BME280;32029;51.358;5.628;2023-02-03T01:02:14;102315.97;;;11.11;93.18
46303;BME280;32029;51.358;5.628;2023-02-03T01:04:59;102312.78;;;11.16;92.97
46303;BME280;32029;51.358;5.628;2023-02-03T01:07:45;102259.66;;;10.79;93.00
46303;BME280;32029;51.358;5.628;2023-02-03T01:10:32;102322.59;;;11.18;93.04
46303;BME280;32029;51.358;5.628;2023-02-03T01:13:27;102317.38;;;11.15;92.74
46303;BME280;32029;51.358;5.628;2023-02-03T01:16:16;102309.41;;;11.04;92.62
46303;BME280;32029;51.358;5.628;2023-02-03T01:19:00;102304.22;;;11.01;92.57
46303;BME280;32029;51.358;5.628;2023-02-03T01:21:44;102324.94;;;11.13;92.93
46303;BME280;32029;51.358;5.628;2023-02-03T01:24:25;102341.50;;;11.21;92.01
46303;BME280;32029;51.358;5.628;2023-02-03T01:27:07;102284.47;;;10.88;91.90
46303;BME280;32029;51.358;5.628;2023-02-03T01:29:50;102285.19;;;10.90;91.92
46303;BME280;32029;51.358;5.628;2023-02-03T01:32:32;102321.38;;;11.03;92.02
46303;BME280;32029;51.358;5.628;2023-02-03T01:35:19;102330.81;;;11.18;92.00
46303;BME280;32029;51.358;5.628;2023-02-03T01:37:59;102288.34;;;10.95;91.58
46303;BME280;32029;51.358;5.628;2023-02-03T01:40:49;102320.25;;;11.23;91.84
46303;BME280;32029;51.358;5.628;2023-02-03T01:43:35;102293.31;;;11.09;91.68
46303;BME280;32029;51.358;5.628;2023-02-03T01:51:59;102263.22;;;10.90;90.94
46303;BME280;32029;51.358;5.628;2023-02-03T01:54:49;102327.47;;;11.24;91.06
46303;BME280;32029;51.358;5.628;2023-02-03T01:57:40;102284.25;;;10.99;90.63
46303;BME280;32029;51.358;5.628;2023-02-03T02:00:27;102284.50;;;11.06;90.92
46303;BME280;32029;51.358;5.628;2023-02-03T02:03:11;102316.19;;;11.27;90.80
46303;BME280;32029;51.358;5.628;2023-02-03T02:06:07;102267.63;;;11.00;90.47
46303;BME280;32029;51.358;5.628;2023-02-03T02:08:56;102288.44;;;11.21;90.87
46303;BME280;32029;51.358;5.628;2023-02-03T02:11:43;102246.44;;;10.93;90.41
46303;BME280;32029;51.358;5.628;2023-02-03T02:14:26;102264.19;;;11.16;90.63
46303;BME280;32029;51.358;5.628;2023-02-03T02:17:20;102277.72;;;11.27;90.35
46303;BME280;32029;51.358;5.628;2023-02-03T02:23:40;102267.63;;;11.18;90.88
46303;BME280;32029;51.358;5.628;2023-02-03T02:36:06;102285.22;;;11.25;90.28
46303;BME280;32029;51.358;5.628;2023-02-03T02:42:14;102253.50;;;11.13;90.09
46303;BME280;32029;51.358;5.628;2023-02-03T02:45:21;102283.03;;;11.29;90.11
46303;BME280;32029;51.358;5.628;2023-02-03T02:48:20;102282.16;;;11.28;89.83
46303;BME280;32029;51.358;5.628;2023-02-03T02:51:05;102278.69;;;11.26;89.85
46303;BME280;32029;51.358;5.628;2023-02-03T02:53:54;102293.25;;;11.37;89.66
46303;BME280;32029;51.358;5.628;2023-02-03T02:56:47;102293.94;;;11.39;89.96
46303;BME280;32029;51.358;5.628;2023-02-03T02:59:37;102298.97;;;11.43;89.67
46303;BME280;32029;51.358;5.628;2023-02-03T03:02:28;102219.44;;;11.06;89.26
46303;BME280;32029;51.358;5.628;2023-02-03T03:05:16;102223.00;;;11.16;89.10
46303;BME280;32029;51.358;5.628;2023-02-03T03:07:57;102259.16;;;11.29;89.10
46303;BME280;32029;51.358;5.628;2023-02-03T03:10:29;102282.25;;;11.37;89.28
46303;BME280;32029;51.358;5.628;2023-02-03T03:13:07;102271.56;;;11.34;89.27
46303;BME280;32029;51.358;5.628;2023-02-03T03:15:36;102250.03;;;11.11;89.43
46303;BME280;32029;51.358;5.628;2023-02-03T03:18:38;102287.38;;;11.32;89.45
46303;BME280;32029;51.358;5.628;2023-02-03T03:21:11;102284.28;;;11.35;89.10
46303;BME280;32029;51.358;5.628;2023-02-03T03:23:49;102292.06;;;11.39;89.10
46303;BME280;32029;51.358;5.628;2023-02-03T03:26:22;102289.16;;;11.41;88.68
46303;BME280;32029;51.358;5.628;2023-02-03T03:29:04;102279.88;;;11.42;88.74
46303;BME280;32029;51.358;5.628;2023-02-03T03:31:32;102283.66;;;11.41;88.64
46303;BME280;32029;51.358;5.628;2023-02-03T03:33:59;102254.31;;;11.23;88.38
46303;BME280;32029;51.358;5.628;2023-02-03T03:36:34;102221.16;;;11.07;88.31
46303;BME280;32029;51.358;5.628;2023-02-03T03:42:03;102297.22;;;11.42;88.08
46303;BME280;32029;51.358;5.628;2023-02-03T03:44:41;102278.16;;;11.41;88.23
46303;BME280;32029;51.358;5.628;2023-02-03T03:47:37;102276.75;;;11.37;88.40
46303;BME280;32029;51.358;5.628;2023-02-03T03:50:13;102238.50;;;11.08;88.36
46303;BME280;32029;51.358;5.628;2023-02-03T03:52:42;102251.94;;;11.28;88.21
46303;BME280;32029;51.358;5.628;2023-02-03T03:55:11;102259.72;;;11.33;88.10
46303;BME280;32029;51.358;5.628;2023-02-03T03:57:55;102232.09;;;11.17;88.28
46303;BME280;32029;51.358;5.628;2023-02-03T04:00:27;102263.31;;;11.34;88.21
46303;BME280;32029;51.358;5.628;2023-02-03T04:02:57;102201.56;;;11.02;87.94
46303;BME280;32029;51.358;5.628;2023-02-03T04:05:25;102249.50;;;11.25;88.31
46303;BME280;32029;51.358;5.628;2023-02-03T04:07:52;102250.53;;;11.24;88.40
46303;BME280;32029;51.358;5.628;2023-02-03T04:12:54;102262.56;;;11.23;88.67
46303;BME280;32029;51.358;5.628;2023-02-03T04:15:21;102250.22;;;11.10;88.45
46303;BME280;32029;51.358;5.628;2023-02-03T04:17:48;102195.03;;;10.85;88.68
46303;BME280;32029;51.358;5.628;2023-02-03T04:20:15;102210.00;;;10.91;88.81
46303;BME280;32029;51.358;5.628;2023-02-03T04:22:42;102274.25;;;11.25;88.88
46303;BME280;32029;51.358;5.628;2023-02-03T04:25:09;102250.38;;;11.08;88.47
46303;BME280;32029;51.358;5.628;2023-02-03T04:27:35;102284.44;;;11.33;88.62
46303;BME280;32029;51.358;5.628;2023-02-03T04:30:03;102269.19;;;11.39;88.23
46303;BME280;32029;51.358;5.628;2023-02-03T04:32:30;102266.06;;;11.34;87.99
46303;BME280;32029;51.358;5.628;2023-02-03T04:34:57;102274.38;;;11.42;88.37
46303;BME280;32029;51.358;5.628;2023-02-03T04:37:24;102292.28;;;11.46;88.03
46303;BME280;32029;51.358;5.628;2023-02-03T04:39:55;102265.75;;;11.37;88.08
46303;BME280;32029;51.358;5.628;2023-02-03T04:42:22;102248.88;;;11.14;88.21
46303;BME280;32029;51.358;5.628;2023-02-03T04:44:52;102199.44;;;10.78;87.79
46303;BME280;32029;51.358;5.628;2023-02-03T04:47:19;102267.88;;;11.25;88.13
46303;BME280;32029;51.358;5.628;2023-02-03T04:49:46;102233.97;;;11.16;87.85
46303;BME280;32029;51.358;5.628;2023-02-03T04:52:14;102260.31;;;11.27;88.13
46303;BME280;32029;51.358;5.628;2023-02-03T04:54:40;102290.56;;;11.45;87.94
46303;BME280;32029;51.358;5.628;2023-02-03T04:57:07;102282.16;;;11.46;88.32
46303;BME280;32029;51.358;5.628;2023-02-03T04:59:34;102250.75;;;11.31;88.17
46303;BME280;32029;51.358;5.628;2023-02-03T05:02:02;102275.47;;;11.49;88.08
46303;BME280;32029;51.358;5.628;2023-02-03T05:04:29;102233.75;;;11.27;87.85
46303;BME280;32029;51.358;5.628;2023-02-03T05:06:56;102268.81;;;11.51;87.67
46303;BME280;32029;51.358;5.628;2023-02-03T05:09:25;102278.53;;;11.46;87.40
46303;BME280;32029;51.358;5.628;2023-02-03T05:11:52;102275.97;;;11.44;87.97
46303;BME280;32029;51.358;5.628;2023-02-03T05:14:19;102257.59;;;11.45;87.56
46303;BME280;32029;51.358;5.628;2023-02-03T05:16:46;102252.41;;;11.42;88.13
46303;BME280;32029;51.358;5.628;2023-02-03T05:19:13;102245.81;;;11.35;87.87
46303;BME280;32029;51.358;5.628;2023-02-03T05:21:39;102257.41;;;11.46;87.72
46303;BME280;32029;51.358;5.628;2023-02-03T05:24:06;102243.47;;;11.40;87.58
46303;BME280;32029;51.358;5.628;2023-02-03T05:26:34;102268.28;;;11.48;87.61
46303;BME280;32029;51.358;5.628;2023-02-03T05:29:02;102270.28;;;11.46;87.44
46303;BME280;32029;51.358;5.628;2023-02-03T05:31:29;102277.84;;;11.44;87.64
46303;BME280;32029;51.358;5.628;2023-02-03T05:33:55;102253.28;;;11.24;87.63
46303;BME280;32029;51.358;5.628;2023-02-03T05:36:22;102226.84;;;11.23;87.57
46303;BME280;32029;51.358;5.628;2023-02-03T05:38:49;102251.22;;;11.26;87.43
46303;BME280;32029;51.358;5.628;2023-02-03T05:41:15;102285.38;;;11.42;87.11
46303;BME280;32029;51.358;5.628;2023-02-03T05:44:01;102293.94;;;11.39;87.59
46303;BME280;32029;51.358;5.628;2023-02-03T05:46:27;102291.84;;;11.33;87.38
46303;BME280;32029;51.358;5.628;2023-02-03T05:48:54;102298.44;;;11.40;87.77
46303;BME280;32029;51.358;5.628;2023-02-03T05:51:21;102232.78;;;11.01;87.73
46303;BME280;32029;51.358;5.628;2023-02-03T05:53:47;102272.34;;;11.26;87.93
46303;BME280;32029;51.358;5.628;2023-02-03T05:56:14;102305.66;;;11.41;87.89
46303;BME280;32029;51.358;5.628;2023-02-03T05:58:41;102266.38;;;11.31;87.79
46303;BME280;32029;51.358;5.628;2023-02-03T06:01:08;102310.19;;;11.50;87.60
46303;BME280;32029;51.358;5.628;2023-02-03T06:03:37;102298.34;;;11.49;87.39
46303;BME280;32029;51.358;5.628;2023-02-03T06:06:03;102227.69;;;11.06;87.50
46303;BME280;32029;51.358;5.628;2023-02-03T06:08:30;102254.06;;;11.17;87.33
46303;BME280;32029;51.358;5.628;2023-02-03T06:10:58;102307.06;;;11.45;87.34
46303;BME280;32029;51.358;5.628;2023-02-03T06:13:26;102249.75;;;11.14;87.07
46303;BME280;32029;51.358;5.628;2023-02-03T06:15:53;102302.81;;;11.50;87.53
46303;BME280;32029;51.358;5.628;2023-02-03T06:18:20;102278.41;;;11.29;87.43
46303;BME280;32029;51.358;5.628;2023-02-03T06:20:47;102311.94;;;11.51;87.38
46303;BME280;32029;51.358;5.628;2023-02-03T06:23:14;102281.88;;;11.32;87.57
46303;BME280;32029;51.358;5.628;2023-02-03T06:25:42;102257.75;;;11.25;87.17
46303;BME280;32029;51.358;5.628;2023-02-03T06:28:09;102255.16;;;11.24;87.26
46303;BME280;32029;51.358;5.628;2023-02-03T06:30:36;102311.59;;;11.54;87.13
46303;BME280;32029;51.358;5.628;2023-02-03T06:33:02;102246.69;;;11.17;87.07
46303;BME280;32029;51.358;5.628;2023-02-03T06:35:29;102287.44;;;11.40;86.98
46303;BME280;32029;51.358;5.628;2023-02-03T06:37:56;102304.69;;;11.50;87.06
46303;BME280;32029;51.358;5.628;2023-02-03T06:40:22;102305.03;;;11.47;86.94
46303;BME280;32029;51.358;5.628;2023-02-03T06:42:49;102307.91;;;11.45;87.11
46303;BME280;32029;51.358;5.628;2023-02-03T06:45:17;102264.66;;;11.29;87.15
46303;BME280;32029;51.358;5.628;2023-02-03T06:47:44;102269.53;;;11.36;87.10
46303;BME280;32029;51.358;5.628;2023-02-03T06:50:13;102277.00;;;11.43;87.19
46303;BME280;32029;51.358;5.628;2023-02-03T06:52:40;102246.94;;;11.24;87.46
46303;BME280;32029;51.358;5.628;2023-02-03T06:55:07;102292.28;;;11.46;87.01
46303;BME280;32029;51.358;5.628;2023-02-03T06:57:34;102297.78;;;11.46;87.28
46303;BME280;32029;51.358;5.628;2023-02-03T07:00:01;102200.44;;;10.95;87.21
46303;BME280;32029;51.358;5.628;2023-02-03T07:02:28;102247.63;;;11.26;86.97
46303;BME280;32029;51.358;5.628;2023-02-03T07:04:54;102243.94;;;11.17;87.13
46303;BME280;32029;51.358;5.628;2023-02-03T07:07:21;102220.78;;;11.20;86.91
46303;BME280;32029;51.358;5.628;2023-02-03T07:09:48;102288.19;;;11.50;86.81
46303;BME280;32029;51.358;5.628;2023-02-03T07:12:14;102256.09;;;11.33;87.21
46303;BME280;32029;51.358;5.628;2023-02-03T07:14:41;102236.38;;;11.19;86.93
46303;BME280;32029;51.358;5.628;2023-02-03T07:17:08;102246.94;;;11.24;86.66
46303;BME280;32029;51.358;5.628;2023-02-03T07:19:34;102290.66;;;11.35;86.91
46303;BME280;32029;51.358;5.628;2023-02-03T07:22:01;102262.63;;;11.32;86.51
46303;BME280;32029;51.358;5.628;2023-02-03T07:24:28;102307.38;;;11.42;86.73
46303;BME280;32029;51.358;5.628;2023-02-03T07:26:54;102279.03;;;11.23;86.98
46303;BME280;32029;51.358;5.628;2023-02-03T07:29:21;102265.75;;;11.19;86.64
46303;BME280;32029;51.358;5.628;2023-02-03T07:31:48;102327.16;;;11.63;86.50
46303;BME280;32029;51.358;5.628;2023-02-03T07:34:14;102271.56;;;11.34;86.33
46303;BME280;32029;51.358;5.628;2023-02-03T07:36:41;102304.06;;;11.56;85.91
46303;BME280;32029;51.358;5.628;2023-02-03T07:39:08;102314.75;;;11.59;86.10
46303;BME280;32029;51.358;5.628;2023-02-03T07:41:34;102275.47;;;11.49;86.04
46303;BME280;32029;51.358;5.628;2023-02-03T07:44:01;102267.63;;;11.54;85.81
46303;BME280;32029;51.358;5.628;2023-02-03T07:46:28;102264.50;;;11.49;85.97
46303;BME280;32029;51.358;5.628;2023-02-03T07:48:54;102270.53;;;11.52;85.73
46303;BME280;32029;51.358;5.628;2023-02-03T07:51:21;102331.09;;;11.78;85.70
46303;BME280;32029;51.358;5.628;2023-02-03T07:53:48;102233.81;;;11.18;85.80
46303;BME280;32029;51.358;5.628;2023-02-03T07:56:15;102322.13;;;11.76;85.70
46303;BME280;32029;51.358;5.628;2023-02-03T07:58:41;102283.56;;;11.50;85.89
46303;BME280;32029;51.358;5.628;2023-02-03T08:01:14;102291.91;;;11.59;85.63
46303;BME280;32029;51.358;5.628;2023-02-03T08:03:41;102279.41;;;11.46;85.74
46303;BME280;32029;51.358;5.628;2023-02-03T08:06:08;102328.75;;;11.84;85.89
46303;BME280;32029;51.358;5.628;2023-02-03T08:08:35;102335.66;;;11.88;85.46
46303;BME280;32029;51.358;5.628;2023-02-03T08:11:15;102331.31;;;11.85;85.81
46303;BME280;32029;51.358;5.628;2023-02-03T08:14:00;102286.56;;;11.57;85.60
46303;BME280;32029;51.358;5.628;2023-02-03T08:16:45;102324.97;;;11.85;85.40
46303;BME280;32029;51.358;5.628;2023-02-03T08:19:28;102306.34;;;11.61;85.74
46303;BME280;32029;51.358;5.628;2023-02-03T08:22:08;102303.03;;;11.57;85.73
46303;BME280;32029;51.358;5.628;2023-02-03T08:24:52;102367.16;;;11.93;85.45
46303;BME280;32029;51.358;5.628;2023-02-03T08:27:32;102336.53;;;11.70;85.38
46303;BME280;32029;51.358;5.628;2023-02-03T08:30:16;102347.03;;;11.75;85.06
46303;BME280;32029;51.358;5.628;2023-02-03T08:32:56;102383.22;;;11.98;85.44
46303;BME280;32029;51.358;5.628;2023-02-03T08:35:39;102382.16;;;11.99;85.26
46303;BME280;32029;51.358;5.628;2023-02-03T08:38:21;102365.13;;;11.95;84.95
46303;BME280;32029;51.358;5.628;2023-02-03T08:41:10;102324.81;;;11.68;85.21
46303;BME280;32029;51.358;5.628;2023-02-03T08:43:59;102331.41;;;11.75;85.24
46303;BME280;32029;51.358;5.628;2023-02-03T08:46:42;102367.69;;;11.97;85.21
46303;BME280;32029;51.358;5.628;2023-02-03T08:49:26;102389.41;;;12.00;85.45
46303;BME280;32029;51.358;5.628;2023-02-03T08:52:14;102388.91;;;12.05;85.15
46303;BME280;32029;51.358;5.628;2023-02-03T08:54:59;102337.75;;;11.76;84.83
46303;BME280;32029;51.358;5.628;2023-02-03T08:57:45;102393.97;;;12.09;84.86
46303;BME280;32029;51.358;5.628;2023-02-03T09:00:29;102339.00;;;11.82;84.91
46303;BME280;32029;51.358;5.628;2023-02-03T09:03:11;102385.53;;;12.11;84.91
46303;BME280;32029;51.358;5.628;2023-02-03T09:05:54;102399.03;;;12.22;84.54
46303;BME280;32029;51.358;5.628;2023-02-03T09:08:36;102358.09;;;12.01;84.79
46303;BME280;32029;51.358;5.628;2023-02-03T09:11:21;102375.88;;;11.89;84.60
46303;BME280;32029;51.358;5.628;2023-02-03T09:14:07;102390.97;;;12.29;84.64
46303;BME280;32029;51.358;5.628;2023-02-03T09:16:53;102347.75;;;11.95;84.67
46303;BME280;32029;51.358;5.628;2023-02-03T09:19:39;102371.06;;;12.09;84.90
46303;BME280;32029;51.358;5.628;2023-02-03T09:22:29;102357.66;;;11.88;84.89
46303;BME280;32029;51.358;5.628;2023-02-03T09:25:14;102338.56;;;11.86;84.85
46303;BME280;32029;51.358;5.628;2023-02-03T09:28:00;102327.00;;;11.83;84.92
46303;BME280;32029;51.358;5.628;2023-02-03T09:31:16;102339.19;;;11.98;85.37
46303;BME280;32029;51.358;5.628;2023-02-03T09:34:02;102388.41;;;12.27;85.40
46303;BME280;32029;51.358;5.628;2023-02-03T09:36:43;102359.38;;;11.89;85.52
46303;BME280;32029;51.358;5.628;2023-02-03T09:39:28;102423.94;;;12.20;85.51
46303;BME280;32029;51.358;5.628;2023-02-03T09:42:43;102423.94;;;12.20;86.06
46303;BME280;32029;51.358;5.628;2023-02-03T09:45:36;102366.84;;;11.96;85.78
46303;BME280;32029;51.358;5.628;2023-02-03T09:48:29;102376.34;;;12.02;86.01
46303;BME280;32029;51.358;5.628;2023-02-03T09:51:49;102409.41;;;12.28;86.02
46303;BME280;32029;51.358;5.628;2023-02-03T09:57:51;102434.72;;;12.32;86.03
46303;BME280;32029;51.358;5.628;2023-02-03T10:06:43;102429.72;;;12.53;85.48
46303;BME280;32029;51.358;5.628;2023-02-03T10:19:08;102416.66;;;12.55;85.40
46303;BME280;32029;51.358;5.628;2023-02-03T10:22:01;102371.09;;;12.35;85.03
46303;BME280;32029;51.358;5.628;2023-02-03T10:25:14;102405.38;;;12.66;85.33
46303;BME280;32029;51.358;5.628;2023-02-03T10:28:15;102358.03;;;12.37;85.21
46303;BME280;32029;51.358;5.628;2023-02-03T10:31:04;102419.13;;;12.66;85.24
46303;BME280;32029;51.358;5.628;2023-02-03T10:33:57;102375.56;;;12.36;85.29
46303;BME280;32029;51.358;5.628;2023-02-03T10:39:51;102422.84;;;12.83;85.06
46303;BME280;32029;51.358;5.628;2023-02-03T10:42:39;102403.66;;;12.65;84.78
46303;BME280;32029;51.358;5.628;2023-02-03T10:45:43;102412.56;;;12.93;84.72
46303;BME280;32029;51.358;5.628;2023-02-03T10:48:20;102406.41;;;12.99;84.53
46303;BME280;32029;51.358;5.628;2023-02-03T10:50:49;102374.81;;;12.86;84.40
46303;BME280;32029;51.358;5.628;2023-02-03T10:53:22;102431.75;;;13.03;84.27
46303;BME280;32029;51.358;5.628;2023-02-03T10:55:58;102421.06;;;13.00;84.38
46303;BME280;32029;51.358;5.628;2023-02-03T10:58:28;102398.63;;;12.95;84.35
46303;BME280;32029;51.358;5.628;2023-02-03T11:01:03;102413.19;;;13.13;83.93
46303;BME280;32029;51.358;5.628;2023-02-03T11:03:30;102423.16;;;13.14;83.95
46303;BME280;32029;51.358;5.628;2023-02-03T11:06:12;102418.53;;;13.15;84.14
46303;BME280;32029;51.358;5.628;2023-02-03T11:08:42;102416.16;;;13.20;83.91
46303;BME280;32029;51.358;5.628;2023-02-03T11:11:14;102408.13;;;13.27;83.92
46303;BME280;32029;51.358;5.628;2023-02-03T11:13:45;102415.34;;;13.28;83.91
46303;BME280;32029;51.358;5.628;2023-02-03T11:16:15;102409.84;;;13.28;83.67
46303;BME280;32029;51.358;5.628;2023-02-03T11:21:27;102426.56;;;13.34;83.38
46303;BME280;32029;51.358;5.628;2023-02-03T11:24:02;102435.19;;;13.31;83.76
46303;BME280;32029;51.358;5.628;2023-02-03T11:26:50;102436.53;;;13.27;83.58
46303;BME280;32029;51.358;5.628;2023-02-03T11:29:30;102436.69;;;13.26;83.73
46303;BME280;32029;51.358;5.628;2023-02-03T11:31:59;102424.81;;;13.25;83.74
46303;BME280;32029;51.358;5.628;2023-02-03T11:34:33;102420.09;;;13.17;83.81
46303;BME280;32029;51.358;5.628;2023-02-03T11:40:13;102433.97;;;13.34;83.60
46303;BME280;32029;51.358;5.628;2023-02-03T11:47:50;102430.53;;;13.32;83.74
46303;BME280;32029;51.358;5.628;2023-02-03T11:50:26;102437.75;;;13.33;84.03
46303;BME280;32029;51.358;5.628;2023-02-03T11:55:57;102421.56;;;13.38;84.07
46303;BME280;32029;51.358;5.628;2023-02-03T12:04:14;102426.06;;;13.39;83.79
46303;BME280;32029;51.358;5.628;2023-02-03T12:12:32;102434.34;;;13.39;83.75
46303;BME280;32029;51.358;5.628;2023-02-03T12:15:28;102423.28;;;13.31;84.06
46303;BME280;32029;51.358;5.628;2023-02-03T12:18:13;102413.97;;;13.32;84.24
46303;BME280;32029;51.358;5.628;2023-02-03T12:20:59;102419.84;;;13.37;84.27
46303;BME280;32029;51.358;5.628;2023-02-03T12:23:34;102432.97;;;13.43;84.04
46303;BME280;32029;51.358;5.628;2023-02-03T12:34:05;102424.03;;;13.57;83.53
46303;BME280;32029;51.358;5.628;2023-02-03T12:36:39;102422.69;;;13.61;83.43
46303;BME280;32029;51.358;5.628;2023-02-03T12:39:17;102398.53;;;13.47;83.29
46303;BME280;32029;51.358;5.628;2023-02-03T12:41:56;102400.94;;;13.50;83.35
46303;BME280;32029;51.358;5.628;2023-02-03T12:44:35;102428.22;;;13.69;83.24
46303;BME280;32029;51.358;5.628;2023-02-03T12:47:16;102432.38;;;13.73;82.94
46303;BME280;32029;51.358;5.628;2023-02-03T12:50:15;102454.78;;;13.79;83.01
46303;BME280;32029;51.358;5.628;2023-02-03T12:52:50;102455.31;;;13.82;82.89
46303;BME280;32029;51.358;5.628;2023-02-03T12:55:33;102449.28;;;13.87;82.75
46303;BME280;32029;51.358;5.628;2023-02-03T12:58:20;102440.47;;;13.75;82.78
46303;BME280;32029;51.358;5.628;2023-02-03T13:01:11;102460.97;;;13.81;82.94
46303;BME280;32029;51.358;5.628;2023-02-03T13:04:07;102459.97;;;13.82;82.93
46303;BME280;32029;51.358;5.628;2023-02-03T13:06:59;102459.97;;;13.82;82.94
46303;BME280;32029;51.358;5.628;2023-02-03T13:09:38;102458.94;;;13.83;83.09
46303;BME280;32029;51.358;5.628;2023-02-03T13:12:13;102455.84;;;13.78;82.96
46303;BME280;32029;51.358;5.628;2023-02-03T13:17:58;102452.53;;;13.74;83.07
46303;BME280;32029;51.358;5.628;2023-02-03T13:20:31;102460.63;;;13.76;83.06
46303;BME280;32029;51.358;5.628;2023-02-03T13:23:05;102449.94;;;13.81;82.95
46303;BME280;32029;51.358;5.628;2023-02-03T13:28:38;102460.84;;;13.82;82.55
46303;BME280;32029;51.358;5.628;2023-02-03T13:34:19;102477.91;;;13.86;82.81
46303;BME280;32029;51.358;5.628;2023-02-03T13:42:27;102466.56;;;13.89;82.60
46303;BME280;32029;51.358;5.628;2023-02-03T13:45:41;102466.56;;;13.89;82.41
46303;BME280;32029;51.358;5.628;2023-02-03T13:47:50;102483.97;;;13.89;82.68
46303;BME280;32029;51.358;5.628;2023-02-03T13:50:26;102454.81;;;13.87;82.61
46303;BME280;32029;51.358;5.628;2023-02-03T13:53:03;102465.50;;;13.90;82.47
46303;BME280;32029;51.358;5.628;2023-02-03T13:55:38;102460.50;;;13.85;82.74
46303;BME280;32029;51.358;5.628;2023-02-03T13:58:17;102452.91;;;13.87;82.72
46303;BME280;32029;51.358;5.628;2023-02-03T14:05:54;102473.97;;;13.96;82.78
46303;BME280;32029;51.358;5.628;2023-02-03T14:16:46;102431.16;;;13.84;82.30
46303;BME280;32029;51.358;5.628;2023-02-03T14:22:01;102469.50;;;14.12;81.75
46303;BME280;32029;51.358;5.628;2023-02-03T14:24:31;102458.28;;;14.05;81.66
46303;BME280;32029;51.358;5.628;2023-02-03T14:27:01;102467.97;;;14.17;82.15
46303;BME280;32029;51.358;5.628;2023-02-03T14:29:35;102482.97;;;14.23;82.30
46303;BME280;32029;51.358;5.628;2023-02-03T14:32:04;102466.25;;;14.25;81.64
46303;BME280;32029;51.358;5.628;2023-02-03T14:34:41;102474.53;;;14.25;81.66
46303;BME280;32029;51.358;5.628;2023-02-03T14:37:18;102456.19;;;14.07;82.05
46303;BME280;32029;51.358;5.628;2023-02-03T14:42:39;102469.00;;;14.16;82.20
46303;BME280;32029;51.358;5.628;2023-02-03T14:54:15;102474.34;;;14.10;81.65
46303;BME280;32029;51.358;5.628;2023-02-03T14:59:56;102476.38;;;14.00;81.91
46303;BME280;32029;51.358;5.628;2023-02-03T15:02:27;102486.91;;;14.04;81.94
46303;BME280;32029;51.358;5.628;2023-02-03T15:07:41;102488.13;;;14.10;81.99
46303;BME280;32029;51.358;5.628;2023-02-03T15:10:17;102498.13;;;14.11;82.31
46303;BME280;32029;51.358;5.628;2023-02-03T15:12:47;102490.91;;;14.10;82.24
46303;BME280;32029;51.358;5.628;2023-02-03T15:15:26;102504.88;;;14.08;82.45
46303;BME280;32029;51.358;5.628;2023-02-03T15:17:58;102495.53;;;14.01;83.76
46303;BME280;32029;51.358;5.628;2023-02-03T15:22:57;102515.50;;;13.87;87.51
46303;BME280;32029;51.358;5.628;2023-02-03T15:25:26;102529.59;;;13.76;88.46
46303;BME280;32029;51.358;5.628;2023-02-03T15:28:09;102524.75;;;13.61;89.21
46303;BME280;32029;51.358;5.628;2023-02-03T15:30:36;102523.81;;;13.53;89.60
46303;BME280;32029;51.358;5.628;2023-02-03T15:33:07;102521.38;;;13.49;89.17
46303;BME280;32029;51.358;5.628;2023-02-03T15:35:36;102488.50;;;13.22;89.01
46303;BME280;32029;51.358;5.628;2023-02-03T15:38:22;102529.81;;;13.40;88.84
46303;BME280;32029;51.358;5.628;2023-02-03T15:40:53;102530.84;;;13.39;89.67
46303;BME280;32029;51.358;5.628;2023-02-03T15:43:34;102526.34;;;13.38;89.59
46303;BME280;32029;51.358;5.628;2023-02-03T15:46:06;102523.06;;;13.34;89.08
46303;BME280;32029;51.358;5.628;2023-02-03T15:48:45;102528.03;;;13.31;88.89
46303;BME280;32029;51.358;5.628;2023-02-03T15:51:52;102539.06;;;13.31;88.53
46303;BME280;32029;51.358;5.628;2023-02-03T15:56:47;102511.75;;;13.19;87.64
46303;BME280;32029;51.358;5.628;2023-02-03T15:59:33;102541.88;;;13.39;87.64